sensor_id;sensor_type;location;lat;lon;timestamp;temperature;humidity
2389;DHT22;1205;47.984;7.668;2022-10-31T00:00:43;12.20;99.90
2389;DHT22;1205;47.984;7.668;2022-10-31T00:03:08;12.10;99.90
2389;DHT22;1205;47.984;7.668;2022-10-31T00:05:34;12.10;99.90
2389;DHT22;1205;47.984;7.668;2022-10-31T00:07:59;12.00;99.90
2389;DHT22;1205;47.984;7.668;2022-10-31T00:10:25;12.00;99.90
2389;DHT22;1205;47.984;7.668;2022-10-31T00:12:52;12.00;99.90
2389;DHT22;1205;47.984;7.668;2022-10-31T00:15:17;11.90;99.90
2389;DHT22;1205;47.984;7.668;2022-10-31T00:17:43;12.00;99.90
2389;DHT22;1205;47.984;7.668;2022-10-31T00:20:09;12.00;99.90
2389;DHT22;1205;47.984;7.668;2022-10-31T00:22:34;12.00;99.90
2389;DHT22;1205;47.984;7.668;2022-10-31T00:25:00;12.00;99.90
2389;DHT22;1205;47.984;7.668;2022-10-31T00:27:25;12.00;99.90
2389;DHT22;1205;47.984;7.668;2022-10-31T00:29:51;12.00;99.90
2389;DHT22;1205;47.984;7.668;2022-10-31T00:32:17;12.00;99.90
2389;DHT22;1205;47.984;7.668;2022-10-31T00:34:42;11.90;99.90
2389;DHT22;1205;47.984;7.668;2022-10-31T00:37:08;11.90;99.90
2389;DHT22;1205;47.984;7.668;2022-10-31T00:39:33;11.90;99.90
2389;DHT22;1205;47.984;7.668;2022-10-31T00:41:59;11.90;99.90
2389;DHT22;1205;47.984;7.668;2022-10-31T00:44:24;11.90;99.90
2389;DHT22;1205;47.984;7.668;2022-10-31T00:46:50;11.80;99.90
2389;DHT22;1205;47.984;7.668;2022-10-31T00:49:15;11.80;99.90
2389;DHT22;1205;47.984;7.668;2022-10-31T00:51:41;11.70;99.90
2389;DHT22;1205;47.984;7.668;2022-10-31T00:54:07;11.80;99.90
2389;DHT22;1205;47.984;7.668;2022-10-31T00:56:32;11.70;99.90
2389;DHT22;1205;47.984;7.668;2022-10-31T00:58:58;11.80;99.90
2389;DHT22;1205;47.984;7.668;2022-10-31T01:01:23;11.70;99.90
2389;DHT22;1205;47.984;7.668;2022-10-31T01:03:49;11.70;99.90
2389;DHT22;1205;47.984;7.668;2022-10-31T01:06:14;11.70;99.90
2389;DHT22;1205;47.984;7.668;2022-10-31T01:08:41;11.70;99.90
2389;DHT22;1205;47.984;7.668;2022-10-31T01:11:19;11.60;99.90
2389;DHT22;1205;47.984;7.668;2022-10-31T01:13:45;11.70;99.90
2389;DHT22;1205;47.984;7.668;2022-10-31T01:16:14;11.60;99.90
2389;DHT22;1205;47.984;7.668;2022-10-31T01:18:41;11.60;99.90
2389;DHT22;1205;47.984;7.668;2022-10-31T01:21:08;11.60;99.90
2389;DHT22;1205;47.984;7.668;2022-10-31T01:23:34;11.50;99.90
2389;DHT22;1205;47.984;7.668;2022-10-31T01:26:15;11.50;99.90
2389;DHT22;1205;47.984;7.668;2022-10-31T01:28:54;11.50;99.90
2389;DHT22;1205;47.984;7.668;2022-10-31T01:31:22;11.50;99.90
2389;DHT22;1205;47.984;7.668;2022-10-31T01:33:48;11.50;99.90
2389;DHT22;1205;47.984;7.668;2022-10-31T01:36:28;11.40;99.90
2389;DHT22;1205;47.984;7.668;2022-10-31T01:39:00;11.50;99.90
2389;DHT22;1205;47.984;7.668;2022-10-31T01:41:29;11.50;99.90
2389;DHT22;1205;47.984;7.668;2022-10-31T01:43:58;11.50;99.90
2389;DHT22;1205;47.984;7.668;2022-10-31T01:46:29;11.50;99.90
2389;DHT22;1205;47.984;7.668;2022-10-31T01:48:58;11.50;99.90
2389;DHT22;1205;47.984;7.668;2022-10-31T01:51:29;11.50;99.90
2389;DHT22;1205;47.984;7.668;2022-10-31T01:53:58;11.50;99.90
2389;DHT22;1205;47.984;7.668;2022-10-31T01:56:25;11.40;99.90
2389;DHT22;1205;47.984;7.668;2022-10-31T01:58:51;11.30;99.90
2389;DHT22;1205;47.984;7.668;2022-10-31T02:01:17;11.40;99.90
2389;DHT22;1205;47.984;7.668;2022-10-31T02:03:44;11.30;99.90
2389;DHT22;1205;47.984;7.668;2022-10-31T02:06:18;11.30;99.90
2389;DHT22;1205;47.984;7.668;2022-10-31T02:08:46;11.30;99.90
2389;DHT22;1205;47.984;7.668;2022-10-31T02:11:12;11.20;99.90
2389;DHT22;1205;47.984;7.668;2022-10-31T02:13:38;11.20;99.90
2389;DHT22;1205;47.984;7.668;2022-10-31T02:16:04;12.00;99.90
2389;DHT22;1205;47.984;7.668;2022-10-31T02:18:30;11.60;99.90
2389;DHT22;1205;47.984;7.668;2022-10-31T02:24:38;11.50;99.90
2389;DHT22;1205;47.984;7.668;2022-10-31T02:29:47;11.40;99.90
2389;DHT22;1205;47.984;7.668;2022-10-31T02:32:21;11.40;99.90
2389;DHT22;1205;47.984;7.668;2022-10-31T02:37:41;11.40;99.90
2389;DHT22;1205;47.984;7.668;2022-10-31T02:40:35;11.40;99.90
2389;DHT22;1205;47.984;7.668;2022-10-31T02:43:12;11.40;99.90
2389;DHT22;1205;47.984;7.668;2022-10-31T02:45:51;11.40;99.90
2389;DHT22;1205;47.984;7.668;2022-10-31T02:48:23;11.30;99.90
2389;DHT22;1205;47.984;7.668;2022-10-31T02:50:54;11.30;99.90
2389;DHT22;1205;47.984;7.668;2022-10-31T02:53:20;11.20;99.90
2389;DHT22;1205;47.984;7.668;2022-10-31T02:55:59;11.20;99.90
2389;DHT22;1205;47.984;7.668;2022-10-31T02:58:30;11.10;99.90
2389;DHT22;1205;47.984;7.668;2022-10-31T03:01:05;11.20;99.90
2389;DHT22;1205;47.984;7.668;2022-10-31T03:07:00;11.20;99.90
2389;DHT22;1205;47.984;7.668;2022-10-31T03:17:37;11.10;99.90
2389;DHT22;1205;47.984;7.668;2022-10-31T03:20:09;11.00;99.90
2389;DHT22;1205;47.984;7.668;2022-10-31T03:22:36;11.00;99.90
2389;DHT22;1205;47.984;7.668;2022-10-31T03:25:04;11.00;99.90
2389;DHT22;1205;47.984;7.668;2022-10-31T03:27:32;11.00;99.90
2389;DHT22;1205;47.984;7.668;2022-10-31T03:30:01;11.00;99.90
2389;DHT22;1205;47.984;7.668;2022-10-31T03:32:39;11.00;99.90
2389;DHT22;1205;47.984;7.668;2022-10-31T03:35:08;11.00;99.90
2389;DHT22;1205;47.984;7.668;2022-10-31T03:37:36;11.00;99.90
2389;DHT22;1205;47.984;7.668;2022-10-31T03:40:06;11.00;99.90
2389;DHT22;1205;47.984;7.668;2022-10-31T03:42:36;11.00;99.90
2389;DHT22;1205;47.984;7.668;2022-10-31T03:45:08;11.10;99.90
2389;DHT22;1205;47.984;7.668;2022-10-31T03:47:37;11.10;99.90
2389;DHT22;1205;47.984;7.668;2022-10-31T03:50:05;11.10;99.90
2389;DHT22;1205;47.984;7.668;2022-10-31T03:52:49;11.10;99.90
2389;DHT22;1205;47.984;7.668;2022-10-31T03:55:24;11.10;99.90
2389;DHT22;1205;47.984;7.668;2022-10-31T04:00:19;11.10;99.90
2389;DHT22;1205;47.984;7.668;2022-10-31T04:02:52;11.10;99.90
2389;DHT22;1205;47.984;7.668;2022-10-31T04:05:20;11.10;99.90
2389;DHT22;1205;47.984;7.668;2022-10-31T04:07:49;11.10;99.90
2389;DHT22;1205;47.984;7.668;2022-10-31T04:10:16;11.10;99.90
2389;DHT22;1205;47.984;7.668;2022-10-31T04:12:47;11.10;99.90
2389;DHT22;1205;47.984;7.668;2022-10-31T04:15:13;11.10;99.90
2389;DHT22;1205;47.984;7.668;2022-10-31T04:17:41;11.10;99.90
2389;DHT22;1205;47.984;7.668;2022-10-31T04:20:08;11.00;99.90
2389;DHT22;1205;47.984;7.668;2022-10-31T04:22:34;11.00;99.90
2389;DHT22;1205;47.984;7.668;2022-10-31T04:24:59;11.00;99.90
2389;DHT22;1205;47.984;7.668;2022-10-31T04:27:25;10.90;99.90
2389;DHT22;1205;47.984;7.668;2022-10-31T04:29:50;11.00;99.90
2389;DHT22;1205;47.984;7.668;2022-10-31T04:32:16;10.90;99.90
2389;DHT22;1205;47.984;7.668;2022-10-31T04:34:41;10.90;99.90
2389;DHT22;1205;47.984;7.668;2022-10-31T04:37:07;10.90;99.90
2389;DHT22;1205;47.984;7.668;2022-10-31T04:39:32;10.90;99.90
2389;DHT22;1205;47.984;7.668;2022-10-31T04:41:58;10.90;99.90
2389;DHT22;1205;47.984;7.668;2022-10-31T04:44:24;10.80;99.90
2389;DHT22;1205;47.984;7.668;2022-10-31T04:46:49;10.80;99.90
2389;DHT22;1205;47.984;7.668;2022-10-31T04:49:15;10.90;99.90
2389;DHT22;1205;47.984;7.668;2022-10-31T04:51:40;10.80;99.90
2389;DHT22;1205;47.984;7.668;2022-10-31T04:54:06;10.90;99.90
2389;DHT22;1205;47.984;7.668;2022-10-31T04:56:31;10.80;99.90
2389;DHT22;1205;47.984;7.668;2022-10-31T04:58:57;10.90;99.90
2389;DHT22;1205;47.984;7.668;2022-10-31T05:01:22;10.80;99.90
2389;DHT22;1205;47.984;7.668;2022-10-31T05:03:48;10.80;99.90
2389;DHT22;1205;47.984;7.668;2022-10-31T05:06:14;10.80;99.90
2389;DHT22;1205;47.984;7.668;2022-10-31T05:08:39;10.80;99.90
2389;DHT22;1205;47.984;7.668;2022-10-31T05:11:05;10.80;99.90
2389;DHT22;1205;47.984;7.668;2022-10-31T05:13:30;10.80;99.90
2389;DHT22;1205;47.984;7.668;2022-10-31T05:15:56;10.80;99.90
2389;DHT22;1205;47.984;7.668;2022-10-31T05:18:22;10.80;99.90
2389;DHT22;1205;47.984;7.668;2022-10-31T05:20:48;10.80;99.90
2389;DHT22;1205;47.984;7.668;2022-10-31T05:23:13;10.80;99.90
2389;DHT22;1205;47.984;7.668;2022-10-31T05:25:40;10.80;99.90
2389;DHT22;1205;47.984;7.668;2022-10-31T05:28:06;10.90;99.90
2389;DHT22;1205;47.984;7.668;2022-10-31T05:30:32;10.90;99.90
2389;DHT22;1205;47.984;7.668;2022-10-31T05:32:58;10.80;99.90
2389;DHT22;1205;47.984;7.668;2022-10-31T05:35:29;10.80;99.90
2389;DHT22;1205;47.984;7.668;2022-10-31T05:37:56;10.90;99.90
2389;DHT22;1205;47.984;7.668;2022-10-31T05:40:23;10.80;99.90
2389;DHT22;1205;47.984;7.668;2022-10-31T05:42:51;10.90;99.90
2389;DHT22;1205;47.984;7.668;2022-10-31T05:45:18;10.90;99.90
2389;DHT22;1205;47.984;7.668;2022-10-31T05:47:59;11.00;99.90
2389;DHT22;1205;47.984;7.668;2022-10-31T05:50:27;10.90;99.90
2389;DHT22;1205;47.984;7.668;2022-10-31T05:53:04;11.00;99.90
2389;DHT22;1205;47.984;7.668;2022-10-31T05:55:30;10.90;99.90
2389;DHT22;1205;47.984;7.668;2022-10-31T05:57:56;10.90;99.90
2389;DHT22;1205;47.984;7.668;2022-10-31T06:00:23;10.90;99.90
2389;DHT22;1205;47.984;7.668;2022-10-31T06:02:49;11.00;99.90
2389;DHT22;1205;47.984;7.668;2022-10-31T06:05:15;10.90;99.90
2389;DHT22;1205;47.984;7.668;2022-10-31T06:07:41;10.90;99.90
2389;DHT22;1205;47.984;7.668;2022-10-31T06:10:07;10.90;99.90
2389;DHT22;1205;47.984;7.668;2022-10-31T06:12:34;10.90;99.90
2389;DHT22;1205;47.984;7.668;2022-10-31T06:15:04;10.90;99.90
2389;DHT22;1205;47.984;7.668;2022-10-31T06:17:31;10.90;99.90
2389;DHT22;1205;47.984;7.668;2022-10-31T06:19:57;10.90;99.90
2389;DHT22;1205;47.984;7.668;2022-10-31T06:22:22;10.90;99.90
2389;DHT22;1205;47.984;7.668;2022-10-31T06:24:48;11.00;99.90
2389;DHT22;1205;47.984;7.668;2022-10-31T06:27:13;11.00;99.90
2389;DHT22;1205;47.984;7.668;2022-10-31T06:29:39;11.00;99.90
2389;DHT22;1205;47.984;7.668;2022-10-31T06:32:04;11.00;99.90
2389;DHT22;1205;47.984;7.668;2022-10-31T06:34:30;11.00;99.90
2389;DHT22;1205;47.984;7.668;2022-10-31T06:36:55;11.10;99.90
2389;DHT22;1205;47.984;7.668;2022-10-31T06:39:21;11.10;99.90
2389;DHT22;1205;47.984;7.668;2022-10-31T06:41:47;11.10;99.90
2389;DHT22;1205;47.984;7.668;2022-10-31T06:44:13;11.20;99.90
2389;DHT22;1205;47.984;7.668;2022-10-31T06:46:39;11.10;99.90
2389;DHT22;1205;47.984;7.668;2022-10-31T06:49:04;11.20;99.90
2389;DHT22;1205;47.984;7.668;2022-10-31T06:51:30;11.20;99.90
2389;DHT22;1205;47.984;7.668;2022-10-31T06:53:55;11.20;99.90
2389;DHT22;1205;47.984;7.668;2022-10-31T06:56:21;11.20;99.90
2389;DHT22;1205;47.984;7.668;2022-10-31T06:58:47;11.20;99.90
2389;DHT22;1205;47.984;7.668;2022-10-31T07:01:12;11.20;99.90
2389;DHT22;1205;47.984;7.668;2022-10-31T07:03:38;11.30;99.90
2389;DHT22;1205;47.984;7.668;2022-10-31T07:06:04;11.30;99.90
2389;DHT22;1205;47.984;7.668;2022-10-31T07:08:30;11.40;99.90
2389;DHT22;1205;47.984;7.668;2022-10-31T07:10:56;11.50;99.90
2389;DHT22;1205;47.984;7.668;2022-10-31T07:13:23;11.50;99.90
2389;DHT22;1205;47.984;7.668;2022-10-31T07:15:52;11.60;99.90
2389;DHT22;1205;47.984;7.668;2022-10-31T07:18:19;11.60;99.90
2389;DHT22;1205;47.984;7.668;2022-10-31T07:20:44;11.70;99.90
2389;DHT22;1205;47.984;7.668;2022-10-31T07:23:10;11.80;99.90
2389;DHT22;1205;47.984;7.668;2022-10-31T07:25:39;11.80;99.90
2389;DHT22;1205;47.984;7.668;2022-10-31T07:28:06;11.90;99.90
2389;DHT22;1205;47.984;7.668;2022-10-31T07:30:32;12.00;99.90
2389;DHT22;1205;47.984;7.668;2022-10-31T07:32:58;12.00;99.90
2389;DHT22;1205;47.984;7.668;2022-10-31T07:35:26;12.10;99.90
2389;DHT22;1205;47.984;7.668;2022-10-31T07:37:52;12.20;99.90
2389;DHT22;1205;47.984;7.668;2022-10-31T07:40:18;12.30;99.90
2389;DHT22;1205;47.984;7.668;2022-10-31T07:42:46;12.40;99.90
2389;DHT22;1205;47.984;7.668;2022-10-31T07:45:15;12.40;99.90
2389;DHT22;1205;47.984;7.668;2022-10-31T07:47:42;12.50;99.90
2389;DHT22;1205;47.984;7.668;2022-10-31T07:50:10;12.60;99.90
2389;DHT22;1205;47.984;7.668;2022-10-31T07:52:36;12.70;99.90
2389;DHT22;1205;47.984;7.668;2022-10-31T07:55:03;12.80;99.90
2389;DHT22;1205;47.984;7.668;2022-10-31T07:57:29;12.90;99.90
2389;DHT22;1205;47.984;7.668;2022-10-31T07:59:55;13.00;99.90
2389;DHT22;1205;47.984;7.668;2022-10-31T08:02:20;13.10;99.90
2389;DHT22;1205;47.984;7.668;2022-10-31T08:04:46;13.20;99.90
2389;DHT22;1205;47.984;7.668;2022-10-31T08:07:11;13.30;99.90
2389;DHT22;1205;47.984;7.668;2022-10-31T08:09:37;13.30;99.90
2389;DHT22;1205;47.984;7.668;2022-10-31T08:12:02;13.40;99.90
2389;DHT22;1205;47.984;7.668;2022-10-31T08:14:28;13.50;99.90
2389;DHT22;1205;47.984;7.668;2022-10-31T08:16:54;13.60;99.90
2389;DHT22;1205;47.984;7.668;2022-10-31T08:19:20;13.60;99.90
2389;DHT22;1205;47.984;7.668;2022-10-31T08:21:46;13.70;99.90
2389;DHT22;1205;47.984;7.668;2022-10-31T08:24:11;13.80;99.90
2389;DHT22;1205;47.984;7.668;2022-10-31T08:26:37;13.80;99.90
2389;DHT22;1205;47.984;7.668;2022-10-31T08:29:03;13.90;99.90
2389;DHT22;1205;47.984;7.668;2022-10-31T08:31:29;13.90;99.90
2389;DHT22;1205;47.984;7.668;2022-10-31T08:33:55;14.00;99.90
2389;DHT22;1205;47.984;7.668;2022-10-31T08:36:21;14.00;99.90
2389;DHT22;1205;47.984;7.668;2022-10-31T08:38:47;14.00;99.90
2389;DHT22;1205;47.984;7.668;2022-10-31T08:41:13;14.10;99.90
2389;DHT22;1205;47.984;7.668;2022-10-31T08:43:38;14.10;99.90
2389;DHT22;1205;47.984;7.668;2022-10-31T08:46:04;14.10;99.90
2389;DHT22;1205;47.984;7.668;2022-10-31T08:48:30;14.20;99.90
2389;DHT22;1205;47.984;7.668;2022-10-31T08:50:58;14.20;99.90
2389;DHT22;1205;47.984;7.668;2022-10-31T08:53:23;14.30;99.90
2389;DHT22;1205;47.984;7.668;2022-10-31T08:55:49;14.40;99.90
2389;DHT22;1205;47.984;7.668;2022-10-31T08:58:19;14.50;99.90
2389;DHT22;1205;47.984;7.668;2022-10-31T09:00:46;14.60;99.90
2389;DHT22;1205;47.984;7.668;2022-10-31T09:03:24;14.70;99.90
2389;DHT22;1205;47.984;7.668;2022-10-31T09:05:54;14.70;99.90
2389;DHT22;1205;47.984;7.668;2022-10-31T09:08:19;14.80;99.90
2389;DHT22;1205;47.984;7.668;2022-10-31T09:10:45;14.80;99.90
2389;DHT22;1205;47.984;7.668;2022-10-31T09:13:13;14.90;99.90
2389;DHT22;1205;47.984;7.668;2022-10-31T09:15:41;15.00;99.90
2389;DHT22;1205;47.984;7.668;2022-10-31T09:18:08;15.10;99.90
2389;DHT22;1205;47.984;7.668;2022-10-31T09:20:35;15.10;99.90
2389;DHT22;1205;47.984;7.668;2022-10-31T09:23:05;15.10;99.90
2389;DHT22;1205;47.984;7.668;2022-10-31T09:25:32;15.30;99.90
2389;DHT22;1205;47.984;7.668;2022-10-31T09:27:59;15.20;99.90
2389;DHT22;1205;47.984;7.668;2022-10-31T09:30:26;15.20;99.90
2389;DHT22;1205;47.984;7.668;2022-10-31T09:32:56;15.30;99.90
2389;DHT22;1205;47.984;7.668;2022-10-31T09:35:22;15.30;99.90
2389;DHT22;1205;47.984;7.668;2022-10-31T09:37:56;15.30;99.90
2389;DHT22;1205;47.984;7.668;2022-10-31T09:45:50;15.40;99.90
2389;DHT22;1205;47.984;7.668;2022-10-31T09:51:05;15.80;99.90
2389;DHT22;1205;47.984;7.668;2022-10-31T09:53:46;16.20;99.90
2389;DHT22;1205;47.984;7.668;2022-10-31T09:56:16;16.00;99.90
2389;DHT22;1205;47.984;7.668;2022-10-31T09:58:50;16.20;99.90
2389;DHT22;1205;47.984;7.668;2022-10-31T10:03:55;16.70;99.90
2389;DHT22;1205;47.984;7.668;2022-10-31T10:06:28;16.80;99.90
2389;DHT22;1205;47.984;7.668;2022-10-31T10:08:55;17.00;99.90
2389;DHT22;1205;47.984;7.668;2022-10-31T10:19:55;17.50;99.90
2389;DHT22;1205;47.984;7.668;2022-10-31T10:22:55;17.70;99.90
2389;DHT22;1205;47.984;7.668;2022-10-31T10:25:28;17.80;99.90
2389;DHT22;1205;47.984;7.668;2022-10-31T10:28:14;17.90;99.90
2389;DHT22;1205;47.984;7.668;2022-10-31T10:30:46;17.30;99.90
2389;DHT22;1205;47.984;7.668;2022-10-31T10:35:49;16.60;99.90
2389;DHT22;1205;47.984;7.668;2022-10-31T10:41:05;16.20;99.90
2389;DHT22;1205;47.984;7.668;2022-10-31T10:43:36;16.30;99.90
2389;DHT22;1205;47.984;7.668;2022-10-31T10:49:24;16.50;99.90
2389;DHT22;1205;47.984;7.668;2022-10-31T11:00:21;16.70;99.90
2389;DHT22;1205;47.984;7.668;2022-10-31T11:02:47;16.70;99.90
2389;DHT22;1205;47.984;7.668;2022-10-31T11:05:37;16.80;99.90
2389;DHT22;1205;47.984;7.668;2022-10-31T11:08:05;16.80;99.90
2389;DHT22;1205;47.984;7.668;2022-10-31T11:10:31;16.80;99.90
2389;DHT22;1205;47.984;7.668;2022-10-31T11:13:05;17.00;99.90
2389;DHT22;1205;47.984;7.668;2022-10-31T11:15:36;16.90;99.90
2389;DHT22;1205;47.984;7.668;2022-10-31T11:18:03;17.10;99.90
2389;DHT22;1205;47.984;7.668;2022-10-31T11:20:34;17.20;99.90
2389;DHT22;1205;47.984;7.668;2022-10-31T11:23:20;17.20;99.90
2389;DHT22;1205;47.984;7.668;2022-10-31T11:28:19;17.50;99.90
2389;DHT22;1205;47.984;7.668;2022-10-31T11:30:48;17.50;99.90
2389;DHT22;1205;47.984;7.668;2022-10-31T11:34:00;17.70;99.90
2389;DHT22;1205;47.984;7.668;2022-10-31T11:36:20;17.60;99.90
2389;DHT22;1205;47.984;7.668;2022-10-31T11:38:47;17.70;99.90
2389;DHT22;1205;47.984;7.668;2022-10-31T11:41:35;17.70;99.90
2389;DHT22;1205;47.984;7.668;2022-10-31T11:44:27;17.70;99.90
2389;DHT22;1205;47.984;7.668;2022-10-31T11:46:56;17.80;99.90
2389;DHT22;1205;47.984;7.668;2022-10-31T11:49:42;17.60;99.90
2389;DHT22;1205;47.984;7.668;2022-10-31T11:52:16;17.70;99.90
2389;DHT22;1205;47.984;7.668;2022-10-31T11:54:51;17.60;99.90
2389;DHT22;1205;47.984;7.668;2022-10-31T11:57:32;17.70;99.90
2389;DHT22;1205;47.984;7.668;2022-10-31T12:00:03;17.70;99.90
2389;DHT22;1205;47.984;7.668;2022-10-31T12:02:30;17.60;99.90
2389;DHT22;1205;47.984;7.668;2022-10-31T12:05:07;17.60;99.90
2389;DHT22;1205;47.984;7.668;2022-10-31T12:07:33;17.60;99.90
2389;DHT22;1205;47.984;7.668;2022-10-31T12:09:59;17.50;99.90
2389;DHT22;1205;47.984;7.668;2022-10-31T12:12:52;17.50;99.90
2389;DHT22;1205;47.984;7.668;2022-10-31T12:21:11;17.50;99.90
2389;DHT22;1205;47.984;7.668;2022-10-31T12:24:12;17.50;99.90
2389;DHT22;1205;47.984;7.668;2022-10-31T12:32:26;17.50;99.90
2389;DHT22;1205;47.984;7.668;2022-10-31T12:35:13;17.50;99.90
2389;DHT22;1205;47.984;7.668;2022-10-31T12:46:37;17.60;99.90
2389;DHT22;1205;47.984;7.668;2022-10-31T12:49:38;17.80;99.90
2389;DHT22;1205;47.984;7.668;2022-10-31T12:55:08;17.80;99.90
2389;DHT22;1205;47.984;7.668;2022-10-31T12:57:58;17.70;99.90
2389;DHT22;1205;47.984;7.668;2022-10-31T13:00:26;17.70;99.90
2389;DHT22;1205;47.984;7.668;2022-10-31T13:05:49;17.90;99.90
2389;DHT22;1205;47.984;7.668;2022-10-31T13:08:17;17.90;99.90
2389;DHT22;1205;47.984;7.668;2022-10-31T13:11:45;18.00;99.90
2389;DHT22;1205;47.984;7.668;2022-10-31T13:13:56;18.20;99.90
2389;DHT22;1205;47.984;7.668;2022-10-31T13:16:25;18.20;99.90
2389;DHT22;1205;47.984;7.668;2022-10-31T13:19:04;18.30;99.90
2389;DHT22;1205;47.984;7.668;2022-10-31T13:21:40;18.40;99.90
2389;DHT22;1205;47.984;7.668;2022-10-31T13:24:13;18.50;99.90
2389;DHT22;1205;47.984;7.668;2022-10-31T13:26:49;18.50;99.90
2389;DHT22;1205;47.984;7.668;2022-10-31T13:29:38;18.60;99.90
2389;DHT22;1205;47.984;7.668;2022-10-31T13:32:06;18.70;99.90
2389;DHT22;1205;47.984;7.668;2022-10-31T13:34:36;18.70;99.90
2389;DHT22;1205;47.984;7.668;2022-10-31T13:40:16;18.80;99.90
2389;DHT22;1205;47.984;7.668;2022-10-31T13:43:25;18.90;99.90
2389;DHT22;1205;47.984;7.668;2022-10-31T13:45:54;18.90;99.90
2389;DHT22;1205;47.984;7.668;2022-10-31T13:48:38;18.90;99.90
2389;DHT22;1205;47.984;7.668;2022-10-31T13:51:09;19.00;99.90
2389;DHT22;1205;47.984;7.668;2022-10-31T13:53:36;19.00;99.90
2389;DHT22;1205;47.984;7.668;2022-10-31T13:58:34;19.00;99.90
2389;DHT22;1205;47.984;7.668;2022-10-31T14:01:18;19.10;99.90
2389;DHT22;1205;47.984;7.668;2022-10-31T14:03:47;19.20;99.90
2389;DHT22;1205;47.984;7.668;2022-10-31T14:06:21;19.10;99.90
2389;DHT22;1205;47.984;7.668;2022-10-31T14:08:50;19.20;99.90
2389;DHT22;1205;47.984;7.668;2022-10-31T14:11:25;19.30;99.90
2389;DHT22;1205;47.984;7.668;2022-10-31T14:13:54;19.30;99.90
2389;DHT22;1205;47.984;7.668;2022-10-31T14:16:26;19.30;99.90
2389;DHT22;1205;47.984;7.668;2022-10-31T14:19:04;19.30;99.90
2389;DHT22;1205;47.984;7.668;2022-10-31T14:21:40;19.30;99.90
2389;DHT22;1205;47.984;7.668;2022-10-31T14:24:31;19.30;99.90
2389;DHT22;1205;47.984;7.668;2022-10-31T14:26:59;19.20;99.90
2389;DHT22;1205;47.984;7.668;2022-10-31T14:29:30;19.20;99.90
2389;DHT22;1205;47.984;7.668;2022-10-31T14:32:02;19.20;99.90
2389;DHT22;1205;47.984;7.668;2022-10-31T14:34:34;19.10;99.90
2389;DHT22;1205;47.984;7.668;2022-10-31T14:37:26;19.00;99.90
2389;DHT22;1205;47.984;7.668;2022-10-31T14:40:02;18.90;99.90
2389;DHT22;1205;47.984;7.668;2022-10-31T14:45:31;18.90;99.90
2389;DHT22;1205;47.984;7.668;2022-10-31T14:50:52;18.80;99.90
2389;DHT22;1205;47.984;7.668;2022-10-31T14:55:56;18.70;99.90
2389;DHT22;1205;47.984;7.668;2022-10-31T15:01:01;18.80;99.90
2389;DHT22;1205;47.984;7.668;2022-10-31T15:03:43;18.80;99.90
2389;DHT22;1205;47.984;7.668;2022-10-31T15:06:16;18.70;99.90
2389;DHT22;1205;47.984;7.668;2022-10-31T15:08:51;18.70;99.90
2389;DHT22;1205;47.984;7.668;2022-10-31T15:11:22;18.70;99.90
2389;DHT22;1205;47.984;7.668;2022-10-31T15:13:52;18.70;99.90
2389;DHT22;1205;47.984;7.668;2022-10-31T15:16:21;18.60;99.90
2389;DHT22;1205;47.984;7.668;2022-10-31T15:18:56;18.60;99.90
2389;DHT22;1205;47.984;7.668;2022-10-31T15:21:25;18.40;99.90
2389;DHT22;1205;47.984;7.668;2022-10-31T15:23:55;18.40;99.90
2389;DHT22;1205;47.984;7.668;2022-10-31T15:26:23;18.20;99.90
2389;DHT22;1205;47.984;7.668;2022-10-31T15:29:11;18.10;99.90
2389;DHT22;1205;47.984;7.668;2022-10-31T15:31:37;18.10;99.90
2389;DHT22;1205;47.984;7.668;2022-10-31T15:34:15;17.90;99.90
2389;DHT22;1205;47.984;7.668;2022-10-31T15:36:41;17.90;99.90
2389;DHT22;1205;47.984;7.668;2022-10-31T15:39:11;17.90;99.90
2389;DHT22;1205;47.984;7.668;2022-10-31T15:41:50;17.80;99.90
2389;DHT22;1205;47.984;7.668;2022-10-31T15:44:29;17.70;99.90
2389;DHT22;1205;47.984;7.668;2022-10-31T15:46:58;17.70;99.90
2389;DHT22;1205;47.984;7.668;2022-10-31T15:49:37;17.60;99.90
2389;DHT22;1205;47.984;7.668;2022-10-31T15:52:11;17.60;99.90
2389;DHT22;1205;47.984;7.668;2022-10-31T15:54:48;17.50;99.90
2389;DHT22;1205;47.984;7.668;2022-10-31T15:57:15;17.40;99.90
2389;DHT22;1205;47.984;7.668;2022-10-31T15:59:45;17.30;99.90
2389;DHT22;1205;47.984;7.668;2022-10-31T16:02:13;17.20;99.90
2389;DHT22;1205;47.984;7.668;2022-10-31T16:04:58;17.10;99.90
2389;DHT22;1205;47.984;7.668;2022-10-31T16:07:24;17.00;99.90
2389;DHT22;1205;47.984;7.668;2022-10-31T16:12:22;16.80;99.90
2389;DHT22;1205;47.984;7.668;2022-10-31T16:14:49;16.70;99.90
2389;DHT22;1205;47.984;7.668;2022-10-31T16:17:17;16.60;99.90
2389;DHT22;1205;47.984;7.668;2022-10-31T16:20:01;16.50;99.90
2389;DHT22;1205;47.984;7.668;2022-10-31T16:22:36;16.40;99.90
2389;DHT22;1205;47.984;7.668;2022-10-31T16:27:35;16.30;99.90
2389;DHT22;1205;47.984;7.668;2022-10-31T16:30:03;16.20;99.90
2389;DHT22;1205;47.984;7.668;2022-10-31T16:32:54;16.10;99.90
2389;DHT22;1205;47.984;7.668;2022-10-31T16:35:31;16.10;99.90
2389;DHT22;1205;47.984;7.668;2022-10-31T16:37:57;16.00;99.90
2389;DHT22;1205;47.984;7.668;2022-10-31T16:40:23;15.90;99.90
2389;DHT22;1205;47.984;7.668;2022-10-31T16:42:49;15.90;99.90
2389;DHT22;1205;47.984;7.668;2022-10-31T16:45:18;15.80;99.90
2389;DHT22;1205;47.984;7.668;2022-10-31T16:47:43;15.70;99.90
2389;DHT22;1205;47.984;7.668;2022-10-31T16:50:20;15.70;99.90
2389;DHT22;1205;47.984;7.668;2022-10-31T16:52:46;15.70;99.90
2389;DHT22;1205;47.984;7.668;2022-10-31T16:55:16;15.70;99.90
2389;DHT22;1205;47.984;7.668;2022-10-31T16:57:54;15.70;99.90
2389;DHT22;1205;47.984;7.668;2022-10-31T17:00:25;15.60;99.90
2389;DHT22;1205;47.984;7.668;2022-10-31T17:02:54;15.60;99.90
2389;DHT22;1205;47.984;7.668;2022-10-31T17:05:21;15.50;99.90
2389;DHT22;1205;47.984;7.668;2022-10-31T17:07:47;15.40;99.90
2389;DHT22;1205;47.984;7.668;2022-10-31T17:10:14;15.40;99.90
2389;DHT22;1205;47.984;7.668;2022-10-31T17:12:44;15.30;99.90
2389;DHT22;1205;47.984;7.668;2022-10-31T17:15:17;15.30;99.90
2389;DHT22;1205;47.984;7.668;2022-10-31T17:17:43;15.30;99.90
2389;DHT22;1205;47.984;7.668;2022-10-31T17:20:34;15.20;99.90
2389;DHT22;1205;47.984;7.668;2022-10-31T17:23:00;15.20;99.90
2389;DHT22;1205;47.984;7.668;2022-10-31T17:25:28;15.20;99.90
2389;DHT22;1205;47.984;7.668;2022-10-31T17:27:54;15.20;99.90
2389;DHT22;1205;47.984;7.668;2022-10-31T17:30:21;15.10;99.90
2389;DHT22;1205;47.984;7.668;2022-10-31T17:32:47;15.10;99.90
2389;DHT22;1205;47.984;7.668;2022-10-31T17:35:14;15.00;99.90
2389;DHT22;1205;47.984;7.668;2022-10-31T17:37:41;15.00;99.90
2389;DHT22;1205;47.984;7.668;2022-10-31T17:40:12;15.00;99.90
2389;DHT22;1205;47.984;7.668;2022-10-31T17:42:38;14.90;99.90
2389;DHT22;1205;47.984;7.668;2022-10-31T17:45:05;15.00;99.90
2389;DHT22;1205;47.984;7.668;2022-10-31T17:47:31;14.90;99.90
2389;DHT22;1205;47.984;7.668;2022-10-31T17:49:57;14.90;99.90
2389;DHT22;1205;47.984;7.668;2022-10-31T17:52:22;14.80;99.90
2389;DHT22;1205;47.984;7.668;2022-10-31T17:54:48;14.80;99.90
2389;DHT22;1205;47.984;7.668;2022-10-31T17:57:14;14.70;99.90
2389;DHT22;1205;47.984;7.668;2022-10-31T17:59:40;14.70;99.90
2389;DHT22;1205;47.984;7.668;2022-10-31T18:02:07;14.60;99.90
2389;DHT22;1205;47.984;7.668;2022-10-31T18:04:37;14.60;99.90
2389;DHT22;1205;47.984;7.668;2022-10-31T18:07:03;14.60;99.90
2389;DHT22;1205;47.984;7.668;2022-10-31T18:09:29;14.60;99.90